createdAt,value
2022-09-02T00:01:17.704Z,14.70
2022-09-02T00:03:45.261Z,14.70
2022-09-02T00:06:12.346Z,14.70
2022-09-02T00:08:40.448Z,14.70
2022-09-02T00:11:09.096Z,14.70
2022-09-02T00:13:37.502Z,14.80
2022-09-02T00:16:05.362Z,14.60
2022-09-02T00:18:33.301Z,14.70
2022-09-02T00:21:00.521Z,14.60
2022-09-02T00:23:27.480Z,14.50
2022-09-02T00:25:54.305Z,14.60
2022-09-02T00:28:21.659Z,14.50
2022-09-02T00:30:48.652Z,14.50
2022-09-02T00:33:16.715Z,14.50
2022-09-02T00:35:43.910Z,14.50
2022-09-02T00:38:11.193Z,14.50
2022-09-02T00:40:38.624Z,14.40
2022-09-02T00:43:08.666Z,14.30
2022-09-02T00:45:38.135Z,14.30
2022-09-02T00:48:05.993Z,14.30
2022-09-02T00:50:36.677Z,14.30
2022-09-02T00:53:09.197Z,14.30
2022-09-02T00:55:46.340Z,14.30
2022-09-02T00:58:30.113Z,14.30
2022-09-02T01:00:58.915Z,14.30
2022-09-02T01:03:28.862Z,14.40
2022-09-02T01:05:57.140Z,14.40
2022-09-02T01:08:27.445Z,14.30
2022-09-02T01:10:55.812Z,14.40
2022-09-02T01:13:26.585Z,14.30
2022-09-02T01:16:04.154Z,14.50
2022-09-02T01:18:31.424Z,14.50
2022-09-02T01:21:00.411Z,14.50
2022-09-02T01:23:28.835Z,14.60
2022-09-02T01:25:59.007Z,14.50
2022-09-02T01:28:26.270Z,14.40
2022-09-02T01:30:55.111Z,14.40
2022-09-02T01:33:23.680Z,14.50
2022-09-02T01:35:52.763Z,14.50
2022-09-02T01:38:21.098Z,14.40
2022-09-02T01:40:48.292Z,14.40
2022-09-02T01:43:22.711Z,14.40
2022-09-02T01:45:54.048Z,14.30
2022-09-02T01:48:22.948Z,14.20
2022-09-02T01:50:59.253Z,14.10
2022-09-02T01:53:27.554Z,14.10
2022-09-02T01:55:54.728Z,14.00
2022-09-02T01:58:22.175Z,14.00
2022-09-02T02:00:49.798Z,13.90
2022-09-02T02:03:16.722Z,13.90
2022-09-02T02:05:43.523Z,13.80
2022-09-02T02:08:14.330Z,13.80
2022-09-02T02:10:42.851Z,13.70
2022-09-02T02:13:11.745Z,13.80
2022-09-02T02:15:41.537Z,13.70
2022-09-02T02:18:09.910Z,13.70
2022-09-02T02:20:37.638Z,13.70
2022-09-02T02:23:05.834Z,13.80
2022-09-02T02:25:32.629Z,13.80
2022-09-02T02:27:59.349Z,13.70
2022-09-02T02:30:27.065Z,13.70
2022-09-02T02:32:54.083Z,13.70
2022-09-02T02:35:21.888Z,13.70
2022-09-02T02:37:50.452Z,13.60
2022-09-02T02:40:20.361Z,13.60
2022-09-02T02:42:49.170Z,13.50
2022-09-02T02:45:16.036Z,13.50
2022-09-02T02:47:45.973Z,13.40
2022-09-02T02:50:16.697Z,13.40
2022-09-02T02:52:43.893Z,13.30
2022-09-02T02:55:12.731Z,13.30
2022-09-02T02:57:41.925Z,13.20
2022-09-02T03:00:16.802Z,13.20
2022-09-02T03:02:44.272Z,13.10
2022-09-02T03:05:12.556Z,13.10
2022-09-02T03:07:39.805Z,13.10
2022-09-02T03:10:10.104Z,13.10
2022-09-02T03:12:39.774Z,13.00
2022-09-02T03:15:08.592Z,12.90
2022-09-02T03:17:35.757Z,12.90
2022-09-02T03:20:03.627Z,12.90
2022-09-02T03:22:35.854Z,12.80
2022-09-02T03:25:03.480Z,12.80
2022-09-02T03:27:30.160Z,12.80
2022-09-02T03:29:58.981Z,12.80
2022-09-02T03:32:26.364Z,12.80
2022-09-02T03:34:57.650Z,12.70
2022-09-02T03:37:24.512Z,12.70
2022-09-02T03:39:51.292Z,12.70
2022-09-02T03:42:19.586Z,12.70
2022-09-02T03:44:49.098Z,12.70
2022-09-02T03:47:17.664Z,12.70
2022-09-02T03:49:47.759Z,12.70
2022-09-02T03:52:14.945Z,12.70
2022-09-02T03:54:41.749Z,12.70
2022-09-02T03:57:08.995Z,12.60
2022-09-02T03:59:36.653Z,12.60
2022-09-02T04:02:03.693Z,12.50
2022-09-02T04:04:31.036Z,12.50
2022-09-02T04:06:58.131Z,12.50
2022-09-02T04:09:27.207Z,12.40
2022-09-02T04:11:54.216Z,12.40
2022-09-02T04:14:20.997Z,12.40
2022-09-02T04:16:47.968Z,12.50
2022-09-02T04:19:14.829Z,12.50
2022-09-02T04:21:42.598Z,12.40
2022-09-02T04:24:11.416Z,12.40
2022-09-02T04:26:45.016Z,12.30
2022-09-02T04:29:13.293Z,12.30
2022-09-02T04:31:41.404Z,12.30
2022-09-02T04:34:08.208Z,12.40
2022-09-02T04:36:35.684Z,12.30
2022-09-02T04:39:09.403Z,12.30
2022-09-02T04:41:37.727Z,12.20
2022-09-02T04:44:08.158Z,12.20
2022-09-02T04:46:39.138Z,12.10
2022-09-02T04:49:09.407Z,12.00
2022-09-02T04:51:38.279Z,12.00
2022-09-02T04:54:07.900Z,12.00
2022-09-02T04:56:37.622Z,12.00
2022-09-02T04:59:05.638Z,12.10
2022-09-02T05:01:35.408Z,12.10
2022-09-02T05:04:09.715Z,12.10
2022-09-02T05:06:44.301Z,12.10
2022-09-02T05:09:14.304Z,12.30
2022-09-02T05:11:41.462Z,12.30
2022-09-02T05:14:08.430Z,12.20
2022-09-02T05:16:40.075Z,12.30
2022-09-02T05:19:13.742Z,12.40
2022-09-02T05:21:46.974Z,12.40
2022-09-02T05:24:26.260Z,12.50
2022-09-02T05:26:54.528Z,12.60
2022-09-02T05:29:23.701Z,12.70
2022-09-02T05:31:50.982Z,12.70
2022-09-02T05:34:18.517Z,12.70
2022-09-02T05:36:46.371Z,12.90
2022-09-02T05:39:13.736Z,13.00
2022-09-02T05:41:40.687Z,13.10
2022-09-02T05:44:09.037Z,13.40
2022-09-02T05:46:38.384Z,13.60
2022-09-02T05:49:06.497Z,13.70
2022-09-02T05:51:47.233Z,13.70
2022-09-02T05:54:31.565Z,13.80
2022-09-02T05:57:06.299Z,13.90
2022-09-02T05:59:36.790Z,14.10
2022-09-02T06:02:03.762Z,14.10
2022-09-02T06:04:32.043Z,14.20
2022-09-02T06:06:59.834Z,14.30
2022-09-02T06:09:27.196Z,14.50
2022-09-02T06:11:54.990Z,14.80
2022-09-02T06:14:27.699Z,14.90
2022-09-02T06:16:57.430Z,15.10
2022-09-02T06:19:32.649Z,15.20
2022-09-02T06:22:03.425Z,15.30
2022-09-02T06:24:31.499Z,15.40
2022-09-02T06:27:07.211Z,15.40
2022-09-02T06:29:35.686Z,15.50
2022-09-02T06:32:02.875Z,15.50
2022-09-02T06:34:29.924Z,15.60
2022-09-02T06:36:57.645Z,15.90
2022-09-02T06:39:25.996Z,15.90
2022-09-02T06:41:56.097Z,16.10
2022-09-02T06:44:26.429Z,16.00
2022-09-02T06:46:56.559Z,16.10
2022-09-02T06:49:25.732Z,16.30
2022-09-02T06:51:56.634Z,16.60
2022-09-02T06:54:28.820Z,17.00
2022-09-02T06:57:05.873Z,17.40
2022-09-02T06:59:36.099Z,17.80
2022-09-02T07:02:03.962Z,18.20
2022-09-02T07:04:53.136Z,18.20
2022-09-02T07:07:22.659Z,18.40
2022-09-02T07:09:57.696Z,18.50
2022-09-02T07:12:27.265Z,18.90
2022-09-02T07:14:59.170Z,19.00
2022-09-02T07:17:31.257Z,19.10
2022-09-02T07:20:04.410Z,19.50
2022-09-02T07:22:37.360Z,19.90
2022-09-02T07:25:04.631Z,19.50
2022-09-02T07:27:32.122Z,19.60
2022-09-02T07:30:00.010Z,19.60
2022-09-02T07:32:27.106Z,19.90
2022-09-02T07:34:53.981Z,19.80
2022-09-02T07:37:21.276Z,20.10
2022-09-02T07:39:52.724Z,20.40
2022-09-02T07:42:19.657Z,20.20
2022-09-02T07:44:47.155Z,20.20
2022-09-02T07:47:15.120Z,20.80
2022-09-02T07:52:32.343Z,21.30
2022-09-02T07:54:59.242Z,20.80
2022-09-02T07:57:26.234Z,20.80
2022-09-02T07:59:55.232Z,20.90
2022-09-02T08:02:22.072Z,21.10
2022-09-02T08:04:49.017Z,21.70
2022-09-02T08:07:18.924Z,21.60
2022-09-02T08:09:45.635Z,21.60
2022-09-02T08:12:12.350Z,22.00
2022-09-02T08:14:39.034Z,21.60
2022-09-02T08:17:06.626Z,21.30
2022-09-02T08:19:33.323Z,21.70
2022-09-02T08:22:06.474Z,22.00
2022-09-02T08:24:33.457Z,22.10
2022-09-02T08:27:00.267Z,22.60
2022-09-02T08:29:27.025Z,22.90
2022-09-02T08:31:54.246Z,22.40
2022-09-02T08:34:21.193Z,22.20
2022-09-02T08:36:56.725Z,22.10
2022-09-02T08:39:24.458Z,22.80
2022-09-02T08:42:15.422Z,22.90
2022-09-02T08:44:42.243Z,22.80
2022-09-02T08:47:18.295Z,23.40
2022-09-02T08:49:50.584Z,23.20
2022-09-02T08:52:41.877Z,23.80
2022-09-02T08:55:18.166Z,23.70
2022-09-02T08:57:46.318Z,23.70
2022-09-02T09:00:14.159Z,23.90
2022-09-02T09:03:01.641Z,24.30
2022-09-02T09:06:07.649Z,24.20
2022-09-02T09:08:49.070Z,23.50
2022-09-02T09:11:26.162Z,24.00
2022-09-02T09:14:06.171Z,23.70
2022-09-02T09:16:38.906Z,23.90
2022-09-02T09:19:11.649Z,23.60
2022-09-02T09:21:40.697Z,23.50
2022-09-02T09:24:27.760Z,23.90
2022-09-02T09:26:55.249Z,24.20
2022-09-02T09:29:22.178Z,24.70
2022-09-02T09:31:57.645Z,24.90
2022-09-02T09:34:24.414Z,25.10
2022-09-02T09:36:55.956Z,24.80
2022-09-02T09:39:31.544Z,25.00
2022-09-02T09:42:29.579Z,25.00
2022-09-02T09:44:56.317Z,24.60
2022-09-02T09:47:25.891Z,24.60
2022-09-02T09:50:08.226Z,25.00
2022-09-02T09:52:35.722Z,24.70
2022-09-02T09:55:25.264Z,24.70
2022-09-02T09:57:54.032Z,24.90
2022-09-02T10:00:33.306Z,25.10
2022-09-02T10:03:03.488Z,24.70
2022-09-02T10:05:36.089Z,24.80
2022-09-02T10:08:17.607Z,25.40
2022-09-02T10:11:02.851Z,25.80
2022-09-02T10:13:37.992Z,25.40
2022-09-02T10:16:32.131Z,25.20
2022-09-02T10:19:34.270Z,25.20
2022-09-02T10:22:09.912Z,25.30
2022-09-02T10:25:12.089Z,25.10
2022-09-02T10:27:55.755Z,25.50
2022-09-02T10:30:24.355Z,25.40
2022-09-02T10:33:06.870Z,25.70
2022-09-02T10:36:25.454Z,26.10
2022-09-02T10:38:52.245Z,25.80
2022-09-02T10:41:47.370Z,25.60
2022-09-02T10:44:45.377Z,25.60
2022-09-02T10:47:37.511Z,26.10
2022-09-02T10:50:32.078Z,26.10
2022-09-02T10:53:15.812Z,25.40
2022-09-02T10:56:03.848Z,25.60
2022-09-02T10:58:49.920Z,26.00
2022-09-02T11:01:32.680Z,26.00
2022-09-02T11:04:25.052Z,26.30
2022-09-02T11:07:02.832Z,26.40
2022-09-02T11:09:45.670Z,26.10
2022-09-02T11:12:40.419Z,25.90
2022-09-02T11:15:16.551Z,26.60
2022-09-02T11:17:46.859Z,27.00
2022-09-02T11:20:38.693Z,26.50
2022-09-02T11:23:34.296Z,26.40
2022-09-02T11:26:11.532Z,26.20
2022-09-02T11:29:00.019Z,26.40
2022-09-02T11:31:43.927Z,26.40
2022-09-02T11:34:38.024Z,25.00
2022-09-02T11:37:07.416Z,24.50
2022-09-02T11:40:11.200Z,24.60
2022-09-02T11:43:03.128Z,25.00
2022-09-02T11:45:40.820Z,25.20
2022-09-02T11:48:45.367Z,25.60
2022-09-02T11:51:23.222Z,25.60
2022-09-02T11:53:54.904Z,25.30
2022-09-02T11:56:31.005Z,24.60
2022-09-02T11:58:57.723Z,24.30
2022-09-02T12:01:34.780Z,24.20
2022-09-02T12:07:08.570Z,24.80
2022-09-02T12:09:46.585Z,24.80
2022-09-02T12:12:38.433Z,24.50
2022-09-02T12:15:05.969Z,24.60
2022-09-02T12:17:39.990Z,25.20
2022-09-02T12:20:11.220Z,26.20
2022-09-02T12:22:40.814Z,25.80
2022-09-02T12:25:29.049Z,24.60
2022-09-02T12:28:26.146Z,24.50
2022-09-02T12:31:02.857Z,24.10
2022-09-02T12:33:34.917Z,24.00
2022-09-02T12:36:05.426Z,24.40
2022-09-02T12:38:40.754Z,25.60
2022-09-02T12:41:13.280Z,26.10
2022-09-02T12:44:08.101Z,26.50
2022-09-02T12:46:53.320Z,25.60
2022-09-02T12:49:35.428Z,25.40
2022-09-02T12:52:06.759Z,25.90
2022-09-02T12:54:39.693Z,26.20
2022-09-02T12:57:08.227Z,26.80
2022-09-02T12:59:38.125Z,26.40
2022-09-02T13:02:20.247Z,25.90
2022-09-02T13:05:19.523Z,25.00
2022-09-02T13:08:02.475Z,24.50
2022-09-02T13:10:48.707Z,24.40
2022-09-02T13:14:07.024Z,24.40
2022-09-02T13:16:53.573Z,25.30
2022-09-02T13:19:26.180Z,25.90
2022-09-02T13:22:31.151Z,25.60
2022-09-02T13:25:29.208Z,25.00
2022-09-02T13:28:11.312Z,24.70
2022-09-02T13:31:16.529Z,24.40
2022-09-02T13:33:43.835Z,25.80
2022-09-02T13:36:10.738Z,27.30
2022-09-02T13:38:38.959Z,26.60
2022-09-02T13:41:05.954Z,26.10
2022-09-02T13:43:32.715Z,26.30
2022-09-02T13:46:01.976Z,26.80
2022-09-02T13:48:34.313Z,26.20
2022-09-02T13:51:12.960Z,25.30
2022-09-02T13:54:18.849Z,25.00
2022-09-02T13:56:36.003Z,24.60
2022-09-02T13:59:02.711Z,24.40
2022-09-02T14:01:35.929Z,24.50
2022-09-02T14:04:09.419Z,24.20
2022-09-02T14:06:43.171Z,24.30
2022-09-02T14:09:26.390Z,24.40
2022-09-02T14:11:54.182Z,24.20
2022-09-02T14:14:24.325Z,24.10
2022-09-02T14:16:52.506Z,24.20
2022-09-02T14:19:22.355Z,24.30
2022-09-02T14:21:56.187Z,24.30
2022-09-02T14:24:39.487Z,24.50
2022-09-02T14:27:18.297Z,24.60
2022-09-02T14:29:47.603Z,24.60
2022-09-02T14:32:20.781Z,24.60
2022-09-02T14:34:48.886Z,24.80
2022-09-02T14:37:23.596Z,25.10
2022-09-02T14:40:12.114Z,25.00
2022-09-02T14:42:57.588Z,24.70
2022-09-02T14:45:31.111Z,24.50
2022-09-02T14:48:10.563Z,24.50
2022-09-02T14:50:38.283Z,24.10
2022-09-02T14:53:08.032Z,23.90
2022-09-02T14:55:48.409Z,23.80
2022-09-02T14:58:16.705Z,23.80
2022-09-02T15:00:51.260Z,24.20
2022-09-02T15:03:18.715Z,25.10
2022-09-02T15:05:46.165Z,25.00
2022-09-02T15:08:14.370Z,24.70
2022-09-02T15:10:42.471Z,24.40
2022-09-02T15:13:32.426Z,24.20
2022-09-02T15:15:59.835Z,24.10
2022-09-02T15:18:26.791Z,23.80
2022-09-02T15:20:54.462Z,23.60
2022-09-02T15:23:22.299Z,23.60
2022-09-02T15:25:49.063Z,23.70
2022-09-02T15:28:15.949Z,23.60
2022-09-02T15:30:42.779Z,23.50
2022-09-02T15:33:16.667Z,23.60
2022-09-02T15:35:44.561Z,23.50
2022-09-02T15:38:11.223Z,23.50
2022-09-02T15:40:37.927Z,23.50
2022-09-02T15:43:04.663Z,23.50
2022-09-02T15:45:31.576Z,23.40
2022-09-02T15:47:59.401Z,23.40
2022-09-02T15:50:27.491Z,23.40
2022-09-02T15:52:55.944Z,23.40
2022-09-02T15:55:26.791Z,23.40
2022-09-02T15:57:56.824Z,23.50
2022-09-02T16:00:27.541Z,23.40
2022-09-02T16:02:57.023Z,23.50
2022-09-02T16:05:24.331Z,23.50
2022-09-02T16:07:54.643Z,23.50
2022-09-02T16:10:21.377Z,23.50
2022-09-02T16:12:48.341Z,23.50
2022-09-02T16:15:15.164Z,23.50
2022-09-02T16:17:42.052Z,23.50
2022-09-02T16:20:09.154Z,23.40
2022-09-02T16:22:36.231Z,23.40
2022-09-02T16:25:02.945Z,23.40
2022-09-02T16:27:48.502Z,23.20
2022-09-02T16:30:16.152Z,23.30
2022-09-02T16:32:44.369Z,23.30
2022-09-02T16:35:11.082Z,23.40
2022-09-02T16:37:37.783Z,23.20
2022-09-02T16:40:05.526Z,23.20
2022-09-02T16:42:37.449Z,23.20
2022-09-02T16:45:05.493Z,23.10
2022-09-02T16:47:32.542Z,23.00
2022-09-02T16:49:59.253Z,22.90
2022-09-02T16:52:26.011Z,22.80
2022-09-02T16:54:52.752Z,22.70
2022-09-02T16:57:19.632Z,22.80
2022-09-02T16:59:46.374Z,22.50
2022-09-02T17:02:13.148Z,22.40
2022-09-02T17:04:41.908Z,22.40
2022-09-02T17:07:09.510Z,22.30
2022-09-02T17:09:36.155Z,22.30
2022-09-02T17:12:03.122Z,22.20
2022-09-02T17:14:29.989Z,22.10
2022-09-02T17:16:56.749Z,22.10
2022-09-02T17:19:27.196Z,22.00
2022-09-02T17:21:56.666Z,22.00
2022-09-02T17:24:31.551Z,21.90
2022-09-02T17:27:02.369Z,21.80
2022-09-02T17:29:49.091Z,21.80
2022-09-02T17:32:25.049Z,21.80
2022-09-02T17:35:04.024Z,21.80
2022-09-02T17:37:45.214Z,21.70
2022-09-02T17:40:31.565Z,21.80
2022-09-02T17:43:06.042Z,21.70
2022-09-02T17:45:38.417Z,21.60
2022-09-02T17:48:34.786Z,21.60
2022-09-02T17:50:59.516Z,21.70
2022-09-02T17:53:55.083Z,21.90
2022-09-02T17:56:51.723Z,21.70
2022-09-02T18:04:20.531Z,21.60
2022-09-02T18:06:49.750Z,21.60
2022-09-02T18:09:22.738Z,21.60
2022-09-02T18:11:52.524Z,21.50
2022-09-02T18:14:38.075Z,21.50
2022-09-02T18:17:10.459Z,21.40
2022-09-02T18:20:09.635Z,21.30
2022-09-02T18:22:52.919Z,21.20
2022-09-02T18:25:38.309Z,21.20
2022-09-02T18:28:40.540Z,21.10
2022-09-02T18:31:24.095Z,21.00
2022-09-02T18:33:53.619Z,20.90
2022-09-02T18:36:48.632Z,20.90
2022-09-02T18:39:39.728Z,20.80
2022-09-02T18:42:32.407Z,20.70
2022-09-02T18:45:31.430Z,20.70
2022-09-02T18:48:21.268Z,20.50
2022-09-02T18:50:59.240Z,20.40
2022-09-02T18:53:32.040Z,20.30
2022-09-02T18:56:05.791Z,20.30
2022-09-02T18:58:44.075Z,20.20
2022-09-02T19:01:21.445Z,20.30
2022-09-02T19:03:48.817Z,20.20
2022-09-02T19:06:28.812Z,20.20
2022-09-02T19:08:59.754Z,20.10
2022-09-02T19:11:27.326Z,20.20
2022-09-02T19:14:00.954Z,20.20
2022-09-02T19:16:41.323Z,20.10
2022-09-02T19:19:09.393Z,20.00
2022-09-02T19:21:55.948Z,20.00
2022-09-02T19:24:39.550Z,19.90
2022-09-02T19:27:16.517Z,19.80
2022-09-02T19:29:54.257Z,19.80
2022-09-02T19:32:29.808Z,19.70
2022-09-02T19:34:57.838Z,19.60
2022-09-02T19:37:26.709Z,19.50
2022-09-02T19:40:04.059Z,19.40
2022-09-02T19:42:35.081Z,19.30
2022-09-02T19:45:01.876Z,19.20
2022-09-02T19:50:15.349Z,19.10
2022-09-02T19:52:47.886Z,19.00
2022-09-02T19:55:38.670Z,18.90
2022-09-02T19:58:05.741Z,18.80
2022-09-02T20:00:37.592Z,18.80
2022-09-02T20:03:04.563Z,18.80
2022-09-02T20:05:34.887Z,18.80
2022-09-02T20:08:01.929Z,18.70
2022-09-02T20:10:30.909Z,18.70
2022-09-02T20:13:02.216Z,18.60
2022-09-02T20:15:37.118Z,18.60
2022-09-02T20:18:14.019Z,18.50
2022-09-02T20:20:45.705Z,18.50
2022-09-02T20:23:17.011Z,18.30
2022-09-02T20:25:52.409Z,18.30
2022-09-02T20:28:25.220Z,18.30
2022-09-02T20:31:09.850Z,18.20
2022-09-02T20:33:49.636Z,18.00
2022-09-02T20:36:47.386Z,18.10
2022-09-02T20:39:41.899Z,18.10
2022-09-02T20:42:31.532Z,18.10
2022-09-02T20:45:12.431Z,18.00
2022-09-02T20:48:05.381Z,17.90
2022-09-02T20:50:43.539Z,17.80
2022-09-02T20:53:31.863Z,17.70
2022-09-02T20:56:07.617Z,17.60
2022-09-02T20:58:51.288Z,17.50
2022-09-02T21:01:45.417Z,17.40
2022-09-02T21:04:51.426Z,17.40
2022-09-02T21:07:26.721Z,17.30
2022-09-02T21:10:29.416Z,17.30
2022-09-02T21:14:03.351Z,17.20
2022-09-02T21:21:04.226Z,17.10
2022-09-02T21:24:08.728Z,17.00
2022-09-02T21:30:20.368Z,16.90
2022-09-02T21:33:00.886Z,16.90
2022-09-02T21:35:40.764Z,16.90
2022-09-02T21:38:14.120Z,16.90
2022-09-02T21:41:16.265Z,16.80
2022-09-02T21:44:14.170Z,16.80
2022-09-02T21:47:15.319Z,16.60
2022-09-02T21:49:54.253Z,16.60
2022-09-02T21:52:54.538Z,16.50
2022-09-02T21:55:49.710Z,16.40
2022-09-02T21:58:19.563Z,16.50
2022-09-02T22:00:54.303Z,16.40
2022-09-02T22:03:42.811Z,16.40
2022-09-02T22:06:19.769Z,16.30
2022-09-02T22:09:06.284Z,16.30
2022-09-02T22:11:43.451Z,16.30
2022-09-02T22:14:18.774Z,16.20
2022-09-02T22:17:04.638Z,16.30
2022-09-02T22:19:34.182Z,16.30
2022-09-02T22:22:10.542Z,16.40
2022-09-02T22:24:39.497Z,16.40
2022-09-02T22:27:23.523Z,16.40
2022-09-02T22:30:08.264Z,16.40
2022-09-02T22:32:41.618Z,16.30
2022-09-02T22:35:32.149Z,16.40
2022-09-02T22:38:24.989Z,16.40
2022-09-02T22:41:11.270Z,16.20
2022-09-02T22:43:43.915Z,16.30
2022-09-02T22:46:35.704Z,16.20
2022-09-02T22:49:31.983Z,16.20
2022-09-02T22:52:47.976Z,16.10
2022-09-02T22:55:20.737Z,16.10
2022-09-02T22:58:10.374Z,16.20
2022-09-02T23:00:48.635Z,16.10
2022-09-02T23:03:24.079Z,16.10
2022-09-02T23:06:07.912Z,16.10
2022-09-02T23:08:37.342Z,16.10
2022-09-02T23:11:19.242Z,16.10
2022-09-02T23:14:09.226Z,16.10
2022-09-02T23:17:23.417Z,16.00
2022-09-02T23:19:56.464Z,16.00
2022-09-02T23:22:50.696Z,15.90
2022-09-02T23:25:47.500Z,15.90
2022-09-02T23:28:20.822Z,15.90
2022-09-02T23:31:17.792Z,15.90
2022-09-02T23:34:13.596Z,15.90
2022-09-02T23:36:59.775Z,16.00
2022-09-02T23:39:57.070Z,15.90
2022-09-02T23:42:25.933Z,15.90
2022-09-02T23:44:59.211Z,15.90
2022-09-02T23:47:47.476Z,15.80
2022-09-02T23:50:16.907Z,15.90
2022-09-02T23:52:56.379Z,15.80
2022-09-02T23:55:28.888Z,15.80
2022-09-02T23:58:19.835Z,15.70
